sensor_id;sensor_type;location;lat;lon;timestamp;P1;durP1;ratioP1;P2;durP2;ratioP2
45686;SDS011;31399;51.176;7.776;2023-07-31T00:01:14;4.30;;;2.67;;
45686;SDS011;31399;51.176;7.776;2023-07-31T00:03:41;5.10;;;2.60;;
45686;SDS011;31399;51.176;7.776;2023-07-31T00:06:08;8.02;;;3.28;;
45686;SDS011;31399;51.176;7.776;2023-07-31T00:08:34;8.07;;;3.72;;
45686;SDS011;31399;51.176;7.776;2023-07-31T00:11:01;5.55;;;3.30;;
45686;SDS011;31399;51.176;7.776;2023-07-31T00:13:27;6.80;;;3.35;;
45686;SDS011;31399;51.176;7.776;2023-07-31T00:15:54;10.15;;;3.28;;
45686;SDS011;31399;51.176;7.776;2023-07-31T00:18:21;9.40;;;3.17;;
45686;SDS011;31399;51.176;7.776;2023-07-31T00:20:47;8.60;;;3.67;;
45686;SDS011;31399;51.176;7.776;2023-07-31T00:23:14;7.45;;;3.78;;
45686;SDS011;31399;51.176;7.776;2023-07-31T00:25:41;8.15;;;3.42;;
45686;SDS011;31399;51.176;7.776;2023-07-31T00:28:08;6.68;;;3.15;;
45686;SDS011;31399;51.176;7.776;2023-07-31T00:30:34;6.90;;;2.95;;
45686;SDS011;31399;51.176;7.776;2023-07-31T00:33:01;6.55;;;2.95;;
45686;SDS011;31399;51.176;7.776;2023-07-31T00:35:28;11.57;;;3.58;;
45686;SDS011;31399;51.176;7.776;2023-07-31T00:37:55;14.63;;;3.70;;
45686;SDS011;31399;51.176;7.776;2023-07-31T00:40:23;11.63;;;3.92;;
45686;SDS011;31399;51.176;7.776;2023-07-31T00:42:50;11.65;;;3.67;;
45686;SDS011;31399;51.176;7.776;2023-07-31T00:45:17;15.00;;;3.65;;
45686;SDS011;31399;51.176;7.776;2023-07-31T00:47:44;11.45;;;3.65;;
45686;SDS011;31399;51.176;7.776;2023-07-31T00:50:11;7.75;;;3.70;;
45686;SDS011;31399;51.176;7.776;2023-07-31T00:52:37;7.60;;;3.28;;
45686;SDS011;31399;51.176;7.776;2023-07-31T00:55:04;11.82;;;3.90;;
45686;SDS011;31399;51.176;7.776;2023-07-31T00:57:31;10.23;;;4.47;;
45686;SDS011;31399;51.176;7.776;2023-07-31T00:59:59;11.60;;;3.80;;
45686;SDS011;31399;51.176;7.776;2023-07-31T01:02:26;9.73;;;3.25;;
45686;SDS011;31399;51.176;7.776;2023-07-31T01:04:53;14.55;;;3.63;;
45686;SDS011;31399;51.176;7.776;2023-07-31T01:07:39;10.00;;;3.50;;
45686;SDS011;31399;51.176;7.776;2023-07-31T01:12:51;9.90;;;3.70;;
45686;SDS011;31399;51.176;7.776;2023-07-31T01:15:20;12.18;;;3.60;;
45686;SDS011;31399;51.176;7.776;2023-07-31T01:17:47;9.68;;;3.53;;
45686;SDS011;31399;51.176;7.776;2023-07-31T01:20:18;15.98;;;3.80;;
45686;SDS011;31399;51.176;7.776;2023-07-31T01:28:20;11.00;;;4.07;;
45686;SDS011;31399;51.176;7.776;2023-07-31T01:30:49;8.02;;;3.58;;
45686;SDS011;31399;51.176;7.776;2023-07-31T01:33:16;15.40;;;3.80;;
45686;SDS011;31399;51.176;7.776;2023-07-31T01:35:46;7.30;;;3.22;;
45686;SDS011;31399;51.176;7.776;2023-07-31T01:38:15;8.85;;;3.22;;
45686;SDS011;31399;51.176;7.776;2023-07-31T01:40:41;7.80;;;3.80;;
45686;SDS011;31399;51.176;7.776;2023-07-31T01:43:09;8.60;;;4.30;;
45686;SDS011;31399;51.176;7.776;2023-07-31T01:45:35;9.55;;;4.03;;
45686;SDS011;31399;51.176;7.776;2023-07-31T01:48:02;11.35;;;3.60;;
45686;SDS011;31399;51.176;7.776;2023-07-31T01:50:29;6.88;;;3.25;;
45686;SDS011;31399;51.176;7.776;2023-07-31T01:52:55;13.07;;;3.70;;
45686;SDS011;31399;51.176;7.776;2023-07-31T01:55:22;11.20;;;3.50;;
45686;SDS011;31399;51.176;7.776;2023-07-31T01:57:48;7.80;;;3.53;;
45686;SDS011;31399;51.176;7.776;2023-07-31T02:00:15;8.13;;;3.42;;
45686;SDS011;31399;51.176;7.776;2023-07-31T02:02:42;7.95;;;2.80;;
45686;SDS011;31399;51.176;7.776;2023-07-31T02:05:08;8.95;;;3.08;;
45686;SDS011;31399;51.176;7.776;2023-07-31T02:07:35;5.95;;;3.10;;
45686;SDS011;31399;51.176;7.776;2023-07-31T02:10:02;7.60;;;3.03;;
45686;SDS011;31399;51.176;7.776;2023-07-31T02:12:28;6.05;;;3.05;;
45686;SDS011;31399;51.176;7.776;2023-07-31T02:14:58;8.02;;;3.42;;
45686;SDS011;31399;51.176;7.776;2023-07-31T02:17:24;6.97;;;3.60;;
45686;SDS011;31399;51.176;7.776;2023-07-31T02:19:52;10.93;;;3.15;;
45686;SDS011;31399;51.176;7.776;2023-07-31T02:22:19;8.90;;;3.08;;
45686;SDS011;31399;51.176;7.776;2023-07-31T02:24:46;10.00;;;3.35;;
45686;SDS011;31399;51.176;7.776;2023-07-31T02:27:12;7.43;;;3.13;;
45686;SDS011;31399;51.176;7.776;2023-07-31T02:29:39;8.45;;;3.00;;
45686;SDS011;31399;51.176;7.776;2023-07-31T02:32:06;9.13;;;3.47;;
45686;SDS011;31399;51.176;7.776;2023-07-31T02:34:32;7.55;;;3.25;;
45686;SDS011;31399;51.176;7.776;2023-07-31T02:36:59;8.73;;;3.55;;
45686;SDS011;31399;51.176;7.776;2023-07-31T02:39:26;7.75;;;3.28;;
45686;SDS011;31399;51.176;7.776;2023-07-31T02:41:53;8.52;;;3.17;;
45686;SDS011;31399;51.176;7.776;2023-07-31T02:44:20;8.00;;;3.08;;
45686;SDS011;31399;51.176;7.776;2023-07-31T02:46:47;9.38;;;2.95;;
45686;SDS011;31399;51.176;7.776;2023-07-31T02:49:13;7.47;;;3.03;;
45686;SDS011;31399;51.176;7.776;2023-07-31T02:51:40;9.40;;;3.00;;
45686;SDS011;31399;51.176;7.776;2023-07-31T02:54:07;8.18;;;2.60;;
45686;SDS011;31399;51.176;7.776;2023-07-31T02:56:33;10.40;;;3.22;;
45686;SDS011;31399;51.176;7.776;2023-07-31T02:59:00;6.93;;;2.83;;
45686;SDS011;31399;51.176;7.776;2023-07-31T03:01:26;7.05;;;2.40;;
45686;SDS011;31399;51.176;7.776;2023-07-31T03:03:53;6.50;;;3.25;;
45686;SDS011;31399;51.176;7.776;2023-07-31T03:06:19;6.00;;;2.67;;
45686;SDS011;31399;51.176;7.776;2023-07-31T03:08:46;6.55;;;2.25;;
45686;SDS011;31399;51.176;7.776;2023-07-31T03:11:13;9.88;;;2.65;;
45686;SDS011;31399;51.176;7.776;2023-07-31T03:13:39;8.15;;;2.85;;
45686;SDS011;31399;51.176;7.776;2023-07-31T03:16:06;10.13;;;2.88;;
45686;SDS011;31399;51.176;7.776;2023-07-31T03:18:33;9.20;;;2.55;;
45686;SDS011;31399;51.176;7.776;2023-07-31T03:20:59;6.80;;;2.97;;
45686;SDS011;31399;51.176;7.776;2023-07-31T03:23:26;8.77;;;3.17;;
45686;SDS011;31399;51.176;7.776;2023-07-31T03:25:56;7.88;;;2.60;;
45686;SDS011;31399;51.176;7.776;2023-07-31T03:28:27;6.55;;;2.20;;
45686;SDS011;31399;51.176;7.776;2023-07-31T03:30:53;4.88;;;2.22;;
45686;SDS011;31399;51.176;7.776;2023-07-31T03:33:20;13.23;;;2.67;;
45686;SDS011;31399;51.176;7.776;2023-07-31T03:35:47;14.00;;;3.10;;
45686;SDS011;31399;51.176;7.776;2023-07-31T03:38:13;5.43;;;3.00;;
45686;SDS011;31399;51.176;7.776;2023-07-31T03:40:40;6.05;;;2.72;;
45686;SDS011;31399;51.176;7.776;2023-07-31T03:43:06;8.15;;;2.47;;
45686;SDS011;31399;51.176;7.776;2023-07-31T03:45:33;10.55;;;2.80;;
45686;SDS011;31399;51.176;7.776;2023-07-31T03:48:00;9.93;;;3.28;;
45686;SDS011;31399;51.176;7.776;2023-07-31T03:50:26;5.57;;;2.60;;
45686;SDS011;31399;51.176;7.776;2023-07-31T03:52:53;13.18;;;2.85;;
45686;SDS011;31399;51.176;7.776;2023-07-31T03:55:19;9.65;;;3.40;;
45686;SDS011;31399;51.176;7.776;2023-07-31T03:57:47;8.48;;;2.47;;
45686;SDS011;31399;51.176;7.776;2023-07-31T04:00:14;8.23;;;2.97;;
45686;SDS011;31399;51.176;7.776;2023-07-31T04:02:41;9.07;;;2.45;;
45686;SDS011;31399;51.176;7.776;2023-07-31T04:05:07;10.27;;;2.17;;
45686;SDS011;31399;51.176;7.776;2023-07-31T04:07:34;11.10;;;3.20;;
45686;SDS011;31399;51.176;7.776;2023-07-31T04:10:01;11.13;;;2.85;;
45686;SDS011;31399;51.176;7.776;2023-07-31T04:12:27;9.27;;;2.90;;
45686;SDS011;31399;51.176;7.776;2023-07-31T04:14:54;10.55;;;2.88;;
45686;SDS011;31399;51.176;7.776;2023-07-31T04:17:21;7.45;;;2.50;;
45686;SDS011;31399;51.176;7.776;2023-07-31T04:19:47;5.78;;;2.63;;
45686;SDS011;31399;51.176;7.776;2023-07-31T04:22:14;7.82;;;4.43;;
45686;SDS011;31399;51.176;7.776;2023-07-31T04:24:41;7.25;;;3.03;;
45686;SDS011;31399;51.176;7.776;2023-07-31T04:27:07;12.50;;;3.72;;
45686;SDS011;31399;51.176;7.776;2023-07-31T04:29:34;10.60;;;3.50;;
45686;SDS011;31399;51.176;7.776;2023-07-31T04:32:00;10.98;;;3.63;;
45686;SDS011;31399;51.176;7.776;2023-07-31T04:34:27;9.65;;;3.60;;
45686;SDS011;31399;51.176;7.776;2023-07-31T04:36:54;8.68;;;3.20;;
45686;SDS011;31399;51.176;7.776;2023-07-31T04:39:20;8.57;;;4.10;;
45686;SDS011;31399;51.176;7.776;2023-07-31T04:41:47;9.85;;;4.10;;
45686;SDS011;31399;51.176;7.776;2023-07-31T04:44:13;7.97;;;4.07;;
45686;SDS011;31399;51.176;7.776;2023-07-31T04:46:40;7.78;;;3.55;;
45686;SDS011;31399;51.176;7.776;2023-07-31T04:49:07;12.23;;;3.97;;
45686;SDS011;31399;51.176;7.776;2023-07-31T04:51:34;12.43;;;3.95;;
45686;SDS011;31399;51.176;7.776;2023-07-31T04:54:01;10.25;;;3.83;;
45686;SDS011;31399;51.176;7.776;2023-07-31T04:56:27;15.43;;;4.70;;
45686;SDS011;31399;51.176;7.776;2023-07-31T04:58:54;8.82;;;3.67;;
45686;SDS011;31399;51.176;7.776;2023-07-31T05:01:21;12.43;;;3.90;;
45686;SDS011;31399;51.176;7.776;2023-07-31T05:03:47;11.00;;;3.97;;
45686;SDS011;31399;51.176;7.776;2023-07-31T05:06:14;7.82;;;3.60;;
45686;SDS011;31399;51.176;7.776;2023-07-31T05:08:41;11.15;;;3.90;;
45686;SDS011;31399;51.176;7.776;2023-07-31T05:11:08;9.30;;;3.50;;
45686;SDS011;31399;51.176;7.776;2023-07-31T05:13:34;10.68;;;4.22;;
45686;SDS011;31399;51.176;7.776;2023-07-31T05:16:01;10.50;;;4.03;;
45686;SDS011;31399;51.176;7.776;2023-07-31T05:18:29;10.65;;;4.15;;
45686;SDS011;31399;51.176;7.776;2023-07-31T05:20:55;12.93;;;3.80;;
45686;SDS011;31399;51.176;7.776;2023-07-31T05:23:22;13.35;;;4.50;;
45686;SDS011;31399;51.176;7.776;2023-07-31T05:25:48;11.20;;;4.50;;
45686;SDS011;31399;51.176;7.776;2023-07-31T05:28:15;10.52;;;4.03;;
45686;SDS011;31399;51.176;7.776;2023-07-31T05:30:41;9.23;;;4.63;;
45686;SDS011;31399;51.176;7.776;2023-07-31T05:33:08;10.00;;;4.22;;
45686;SDS011;31399;51.176;7.776;2023-07-31T05:35:39;10.23;;;4.78;;
45686;SDS011;31399;51.176;7.776;2023-07-31T05:38:06;9.77;;;4.90;;
45686;SDS011;31399;51.176;7.776;2023-07-31T05:40:33;11.05;;;4.70;;
45686;SDS011;31399;51.176;7.776;2023-07-31T05:42:59;11.18;;;4.68;;
45686;SDS011;31399;51.176;7.776;2023-07-31T05:45:26;9.77;;;4.85;;
45686;SDS011;31399;51.176;7.776;2023-07-31T05:47:53;10.25;;;5.18;;
45686;SDS011;31399;51.176;7.776;2023-07-31T05:50:20;8.68;;;4.82;;
45686;SDS011;31399;51.176;7.776;2023-07-31T05:52:47;9.85;;;4.65;;
45686;SDS011;31399;51.176;7.776;2023-07-31T05:55:13;11.32;;;5.07;;
45686;SDS011;31399;51.176;7.776;2023-07-31T05:57:40;12.73;;;4.90;;
45686;SDS011;31399;51.176;7.776;2023-07-31T06:00:07;10.05;;;4.65;;
45686;SDS011;31399;51.176;7.776;2023-07-31T06:02:34;7.70;;;4.35;;
45686;SDS011;31399;51.176;7.776;2023-07-31T06:05:03;11.65;;;4.57;;
45686;SDS011;31399;51.176;7.776;2023-07-31T06:07:32;7.72;;;4.10;;
45686;SDS011;31399;51.176;7.776;2023-07-31T06:09:59;8.35;;;3.97;;
45686;SDS011;31399;51.176;7.776;2023-07-31T06:12:31;8.15;;;3.75;;
45686;SDS011;31399;51.176;7.776;2023-07-31T06:14:59;7.15;;;3.88;;
45686;SDS011;31399;51.176;7.776;2023-07-31T06:17:26;6.45;;;3.35;;
45686;SDS011;31399;51.176;7.776;2023-07-31T06:19:53;9.98;;;3.22;;
45686;SDS011;31399;51.176;7.776;2023-07-31T06:22:20;10.30;;;3.30;;
45686;SDS011;31399;51.176;7.776;2023-07-31T06:24:46;7.03;;;3.13;;
45686;SDS011;31399;51.176;7.776;2023-07-31T06:27:13;6.00;;;3.28;;
45686;SDS011;31399;51.176;7.776;2023-07-31T06:29:40;6.70;;;3.72;;
45686;SDS011;31399;51.176;7.776;2023-07-31T06:32:07;6.07;;;2.90;;
45686;SDS011;31399;51.176;7.776;2023-07-31T06:34:34;10.68;;;2.88;;
45686;SDS011;31399;51.176;7.776;2023-07-31T06:37:01;7.63;;;3.22;;
45686;SDS011;31399;51.176;7.776;2023-07-31T06:39:27;8.80;;;3.17;;
45686;SDS011;31399;51.176;7.776;2023-07-31T06:41:54;8.35;;;2.40;;
45686;SDS011;31399;51.176;7.776;2023-07-31T06:44:21;6.68;;;2.70;;
45686;SDS011;31399;51.176;7.776;2023-07-31T06:46:48;8.90;;;3.08;;
45686;SDS011;31399;51.176;7.776;2023-07-31T06:49:14;7.43;;;2.67;;
45686;SDS011;31399;51.176;7.776;2023-07-31T06:51:42;7.05;;;2.90;;
45686;SDS011;31399;51.176;7.776;2023-07-31T06:54:10;7.57;;;2.90;;
45686;SDS011;31399;51.176;7.776;2023-07-31T06:56:37;7.93;;;3.08;;
45686;SDS011;31399;51.176;7.776;2023-07-31T06:59:06;5.43;;;2.70;;
45686;SDS011;31399;51.176;7.776;2023-07-31T07:01:33;6.35;;;3.33;;
45686;SDS011;31399;51.176;7.776;2023-07-31T07:04:00;7.20;;;3.00;;
45686;SDS011;31399;51.176;7.776;2023-07-31T07:06:26;6.30;;;2.83;;
45686;SDS011;31399;51.176;7.776;2023-07-31T07:08:53;7.18;;;3.22;;
45686;SDS011;31399;51.176;7.776;2023-07-31T07:11:20;6.10;;;2.60;;
45686;SDS011;31399;51.176;7.776;2023-07-31T07:13:46;4.97;;;2.33;;
45686;SDS011;31399;51.176;7.776;2023-07-31T07:16:13;8.40;;;2.83;;
45686;SDS011;31399;51.176;7.776;2023-07-31T07:18:40;6.07;;;2.65;;
45686;SDS011;31399;51.176;7.776;2023-07-31T07:21:15;8.40;;;3.25;;
45686;SDS011;31399;51.176;7.776;2023-07-31T07:23:44;4.47;;;2.30;;
45686;SDS011;31399;51.176;7.776;2023-07-31T07:26:11;5.65;;;2.47;;
45686;SDS011;31399;51.176;7.776;2023-07-31T07:28:38;4.85;;;3.38;;
45686;SDS011;31399;51.176;7.776;2023-07-31T07:31:05;4.53;;;2.30;;
45686;SDS011;31399;51.176;7.776;2023-07-31T07:33:32;5.78;;;2.60;;
45686;SDS011;31399;51.176;7.776;2023-07-31T07:36:02;6.03;;;3.30;;
45686;SDS011;31399;51.176;7.776;2023-07-31T07:38:28;13.27;;;3.35;;
45686;SDS011;31399;51.176;7.776;2023-07-31T07:40:55;6.65;;;2.80;;
45686;SDS011;31399;51.176;7.776;2023-07-31T07:43:22;5.32;;;2.42;;
45686;SDS011;31399;51.176;7.776;2023-07-31T07:45:48;6.88;;;2.80;;
45686;SDS011;31399;51.176;7.776;2023-07-31T07:48:16;5.28;;;2.55;;
45686;SDS011;31399;51.176;7.776;2023-07-31T07:50:43;3.03;;;2.08;;
45686;SDS011;31399;51.176;7.776;2023-07-31T07:53:10;5.20;;;2.40;;
45686;SDS011;31399;51.176;7.776;2023-07-31T07:55:37;5.07;;;2.70;;
45686;SDS011;31399;51.176;7.776;2023-07-31T07:58:04;5.30;;;2.85;;
45686;SDS011;31399;51.176;7.776;2023-07-31T08:00:31;7.00;;;2.60;;
45686;SDS011;31399;51.176;7.776;2023-07-31T08:02:58;10.90;;;2.40;;
45686;SDS011;31399;51.176;7.776;2023-07-31T08:05:25;6.13;;;2.53;;
45686;SDS011;31399;51.176;7.776;2023-07-31T08:07:51;9.40;;;2.90;;
45686;SDS011;31399;51.176;7.776;2023-07-31T08:10:18;5.50;;;3.33;;
45686;SDS011;31399;51.176;7.776;2023-07-31T08:12:44;7.85;;;2.70;;
45686;SDS011;31399;51.176;7.776;2023-07-31T08:15:11;8.05;;;3.17;;
45686;SDS011;31399;51.176;7.776;2023-07-31T08:17:38;9.13;;;3.22;;
45686;SDS011;31399;51.176;7.776;2023-07-31T08:20:05;9.55;;;2.88;;
45686;SDS011;31399;51.176;7.776;2023-07-31T08:22:34;5.82;;;2.15;;
45686;SDS011;31399;51.176;7.776;2023-07-31T08:25:01;4.90;;;2.63;;
45686;SDS011;31399;51.176;7.776;2023-07-31T08:27:27;7.90;;;2.35;;
45686;SDS011;31399;51.176;7.776;2023-07-31T08:29:55;6.60;;;2.53;;
45686;SDS011;31399;51.176;7.776;2023-07-31T08:32:22;7.18;;;3.00;;
45686;SDS011;31399;51.176;7.776;2023-07-31T08:34:49;4.05;;;2.53;;
45686;SDS011;31399;51.176;7.776;2023-07-31T08:37:15;6.30;;;2.55;;
45686;SDS011;31399;51.176;7.776;2023-07-31T08:39:42;6.15;;;3.00;;
45686;SDS011;31399;51.176;7.776;2023-07-31T08:42:09;5.30;;;2.78;;
45686;SDS011;31399;51.176;7.776;2023-07-31T08:44:35;5.13;;;2.47;;
45686;SDS011;31399;51.176;7.776;2023-07-31T08:47:03;4.32;;;2.45;;
45686;SDS011;31399;51.176;7.776;2023-07-31T08:49:30;3.88;;;2.15;;
45686;SDS011;31399;51.176;7.776;2023-07-31T08:51:57;4.40;;;2.10;;
45686;SDS011;31399;51.176;7.776;2023-07-31T08:54:24;3.30;;;1.83;;
45686;SDS011;31399;51.176;7.776;2023-07-31T08:56:51;3.13;;;2.33;;
45686;SDS011;31399;51.176;7.776;2023-07-31T08:59:19;6.30;;;2.40;;
45686;SDS011;31399;51.176;7.776;2023-07-31T09:01:48;3.88;;;2.33;;
45686;SDS011;31399;51.176;7.776;2023-07-31T09:04:16;3.03;;;1.88;;
45686;SDS011;31399;51.176;7.776;2023-07-31T09:06:46;4.82;;;1.80;;
45686;SDS011;31399;51.176;7.776;2023-07-31T09:09:14;5.07;;;2.17;;
45686;SDS011;31399;51.176;7.776;2023-07-31T09:11:42;2.47;;;1.50;;
45686;SDS011;31399;51.176;7.776;2023-07-31T09:14:09;2.13;;;1.50;;
45686;SDS011;31399;51.176;7.776;2023-07-31T09:16:36;4.15;;;1.88;;
45686;SDS011;31399;51.176;7.776;2023-07-31T09:19:25;3.70;;;1.70;;
45686;SDS011;31399;51.176;7.776;2023-07-31T09:21:53;7.15;;;1.40;;
45686;SDS011;31399;51.176;7.776;2023-07-31T09:24:27;2.15;;;1.30;;
45686;SDS011;31399;51.176;7.776;2023-07-31T09:26:54;2.35;;;1.30;;
45686;SDS011;31399;51.176;7.776;2023-07-31T09:29:26;1.88;;;1.10;;
45686;SDS011;31399;51.176;7.776;2023-07-31T09:31:54;1.63;;;0.90;;
45686;SDS011;31399;51.176;7.776;2023-07-31T09:34:28;1.50;;;0.93;;
45686;SDS011;31399;51.176;7.776;2023-07-31T09:36:57;2.45;;;1.42;;
45686;SDS011;31399;51.176;7.776;2023-07-31T09:39:27;3.13;;;1.23;;
45686;SDS011;31399;51.176;7.776;2023-07-31T09:41:54;3.00;;;1.40;;
45686;SDS011;31399;51.176;7.776;2023-07-31T09:44:32;3.70;;;1.55;;
45686;SDS011;31399;51.176;7.776;2023-07-31T09:47:04;2.15;;;1.42;;
45686;SDS011;31399;51.176;7.776;2023-07-31T09:49:31;2.53;;;1.60;;
45686;SDS011;31399;51.176;7.776;2023-07-31T09:51:58;1.80;;;1.30;;
45686;SDS011;31399;51.176;7.776;2023-07-31T09:54:24;5.15;;;1.38;;
45686;SDS011;31399;51.176;7.776;2023-07-31T09:56:51;2.97;;;1.40;;
45686;SDS011;31399;51.176;7.776;2023-07-31T09:59:19;1.88;;;0.85;;
45686;SDS011;31399;51.176;7.776;2023-07-31T10:01:49;2.05;;;1.30;;
45686;SDS011;31399;51.176;7.776;2023-07-31T10:04:17;2.22;;;0.88;;
45686;SDS011;31399;51.176;7.776;2023-07-31T10:06:47;1.95;;;1.08;;
45686;SDS011;31399;51.176;7.776;2023-07-31T10:09:15;2.55;;;1.35;;
45686;SDS011;31399;51.176;7.776;2023-07-31T10:11:47;2.40;;;1.73;;
45686;SDS011;31399;51.176;7.776;2023-07-31T10:14:22;3.35;;;1.20;;
45686;SDS011;31399;51.176;7.776;2023-07-31T10:16:50;1.65;;;1.10;;
45686;SDS011;31399;51.176;7.776;2023-07-31T10:19:17;1.83;;;1.27;;
45686;SDS011;31399;51.176;7.776;2023-07-31T10:21:45;3.70;;;1.45;;
45686;SDS011;31399;51.176;7.776;2023-07-31T10:24:13;1.65;;;0.85;;
45686;SDS011;31399;51.176;7.776;2023-07-31T10:26:41;1.10;;;0.70;;
45686;SDS011;31399;51.176;7.776;2023-07-31T10:29:12;1.70;;;0.80;;
45686;SDS011;31399;51.176;7.776;2023-07-31T10:31:39;1.52;;;0.57;;
45686;SDS011;31399;51.176;7.776;2023-07-31T10:34:06;1.38;;;0.82;;
45686;SDS011;31399;51.176;7.776;2023-07-31T10:36:32;2.83;;;0.70;;
45686;SDS011;31399;51.176;7.776;2023-07-31T10:38:59;1.65;;;0.70;;
45686;SDS011;31399;51.176;7.776;2023-07-31T10:41:30;1.30;;;0.75;;
45686;SDS011;31399;51.176;7.776;2023-07-31T10:43:58;1.85;;;0.60;;
45686;SDS011;31399;51.176;7.776;2023-07-31T10:46:27;1.10;;;0.60;;
45686;SDS011;31399;51.176;7.776;2023-07-31T10:48:58;2.47;;;0.70;;
45686;SDS011;31399;51.176;7.776;2023-07-31T10:51:33;0.80;;;0.68;;
45686;SDS011;31399;51.176;7.776;2023-07-31T10:54:13;2.42;;;0.60;;
45686;SDS011;31399;51.176;7.776;2023-07-31T10:56:44;0.90;;;0.50;;
45686;SDS011;31399;51.176;7.776;2023-07-31T10:59:12;3.40;;;0.63;;
45686;SDS011;31399;51.176;7.776;2023-07-31T11:01:49;2.08;;;0.80;;
45686;SDS011;31399;51.176;7.776;2023-07-31T11:04:26;1.43;;;0.80;;
45686;SDS011;31399;51.176;7.776;2023-07-31T11:07:00;2.63;;;1.05;;
45686;SDS011;31399;51.176;7.776;2023-07-31T11:09:29;1.77;;;0.90;;
45686;SDS011;31399;51.176;7.776;2023-07-31T11:11:58;2.50;;;1.30;;
45686;SDS011;31399;51.176;7.776;2023-07-31T11:14:26;2.13;;;1.13;;
45686;SDS011;31399;51.176;7.776;2023-07-31T11:16:52;1.98;;;1.50;;
45686;SDS011;31399;51.176;7.776;2023-07-31T11:19:23;3.80;;;1.10;;
45686;SDS011;31399;51.176;7.776;2023-07-31T11:21:53;4.00;;;1.65;;
45686;SDS011;31399;51.176;7.776;2023-07-31T11:24:20;2.17;;;1.25;;
45686;SDS011;31399;51.176;7.776;2023-07-31T11:26:53;3.75;;;1.50;;
45686;SDS011;31399;51.176;7.776;2023-07-31T11:29:20;2.13;;;1.50;;
45686;SDS011;31399;51.176;7.776;2023-07-31T11:31:47;4.32;;;1.42;;
45686;SDS011;31399;51.176;7.776;2023-07-31T11:34:15;2.88;;;2.03;;
45686;SDS011;31399;51.176;7.776;2023-07-31T11:36:47;2.75;;;1.60;;
45686;SDS011;31399;51.176;7.776;2023-07-31T11:39:19;3.40;;;2.00;;
45686;SDS011;31399;51.176;7.776;2023-07-31T11:41:45;2.50;;;1.10;;
45686;SDS011;31399;51.176;7.776;2023-07-31T11:44:12;3.75;;;1.40;;
45686;SDS011;31399;51.176;7.776;2023-07-31T11:46:56;2.72;;;1.70;;
45686;SDS011;31399;51.176;7.776;2023-07-31T11:49:23;2.72;;;1.38;;
45686;SDS011;31399;51.176;7.776;2023-07-31T11:51:49;3.85;;;1.77;;
45686;SDS011;31399;51.176;7.776;2023-07-31T11:54:16;3.22;;;1.63;;
45686;SDS011;31399;51.176;7.776;2023-07-31T11:56:43;2.65;;;1.73;;
45686;SDS011;31399;51.176;7.776;2023-07-31T11:59:10;2.60;;;1.60;;
45686;SDS011;31399;51.176;7.776;2023-07-31T12:01:38;2.97;;;1.17;;
45686;SDS011;31399;51.176;7.776;2023-07-31T12:04:05;1.58;;;1.10;;
45686;SDS011;31399;51.176;7.776;2023-07-31T12:06:32;1.60;;;1.10;;
45686;SDS011;31399;51.176;7.776;2023-07-31T12:09:04;2.40;;;1.35;;
45686;SDS011;31399;51.176;7.776;2023-07-31T12:11:31;1.55;;;1.00;;
45686;SDS011;31399;51.176;7.776;2023-07-31T12:14:18;1.85;;;1.10;;
45686;SDS011;31399;51.176;7.776;2023-07-31T12:17:01;2.33;;;1.17;;
45686;SDS011;31399;51.176;7.776;2023-07-31T12:19:30;2.83;;;1.20;;
45686;SDS011;31399;51.176;7.776;2023-07-31T12:21:58;2.55;;;1.20;;
45686;SDS011;31399;51.176;7.776;2023-07-31T12:24:28;3.65;;;1.20;;
45686;SDS011;31399;51.176;7.776;2023-07-31T12:26:55;4.18;;;1.05;;
45686;SDS011;31399;51.176;7.776;2023-07-31T12:29:21;4.13;;;1.40;;
45686;SDS011;31399;51.176;7.776;2023-07-31T12:31:48;1.95;;;1.45;;
45686;SDS011;31399;51.176;7.776;2023-07-31T12:34:15;2.05;;;1.45;;
45686;SDS011;31399;51.176;7.776;2023-07-31T12:36:44;8.80;;;2.45;;
45686;SDS011;31399;51.176;7.776;2023-07-31T12:39:10;3.60;;;2.28;;
45686;SDS011;31399;51.176;7.776;2023-07-31T12:41:39;2.95;;;2.50;;
45686;SDS011;31399;51.176;7.776;2023-07-31T12:44:05;4.93;;;2.85;;
45686;SDS011;31399;51.176;7.776;2023-07-31T12:46:32;2.63;;;2.25;;
45686;SDS011;31399;51.176;7.776;2023-07-31T12:48:59;4.82;;;2.90;;
45686;SDS011;31399;51.176;7.776;2023-07-31T12:51:26;4.07;;;2.83;;
45686;SDS011;31399;51.176;7.776;2023-07-31T12:53:52;3.25;;;2.60;;
45686;SDS011;31399;51.176;7.776;2023-07-31T12:56:19;5.20;;;2.60;;
45686;SDS011;31399;51.176;7.776;2023-07-31T12:58:45;4.53;;;2.10;;
45686;SDS011;31399;51.176;7.776;2023-07-31T13:01:12;4.78;;;2.17;;
45686;SDS011;31399;51.176;7.776;2023-07-31T13:03:39;3.55;;;1.90;;
45686;SDS011;31399;51.176;7.776;2023-07-31T13:06:05;5.72;;;2.92;;
45686;SDS011;31399;51.176;7.776;2023-07-31T13:08:32;5.00;;;3.30;;
45686;SDS011;31399;51.176;7.776;2023-07-31T13:10:59;3.50;;;2.78;;
45686;SDS011;31399;51.176;7.776;2023-07-31T13:13:25;2.75;;;2.53;;
45686;SDS011;31399;51.176;7.776;2023-07-31T13:15:52;4.50;;;2.90;;
45686;SDS011;31399;51.176;7.776;2023-07-31T13:18:18;6.07;;;2.30;;
45686;SDS011;31399;51.176;7.776;2023-07-31T13:20:45;2.60;;;1.83;;
45686;SDS011;31399;51.176;7.776;2023-07-31T13:23:12;3.45;;;2.20;;
45686;SDS011;31399;51.176;7.776;2023-07-31T13:25:38;1.60;;;1.50;;
45686;SDS011;31399;51.176;7.776;2023-07-31T13:28:05;1.50;;;1.02;;
45686;SDS011;31399;51.176;7.776;2023-07-31T13:30:32;1.65;;;1.52;;
45686;SDS011;31399;51.176;7.776;2023-07-31T13:32:59;1.75;;;1.40;;
45686;SDS011;31399;51.176;7.776;2023-07-31T13:35:26;1.40;;;1.30;;
45686;SDS011;31399;51.176;7.776;2023-07-31T13:37:52;3.75;;;1.55;;
45686;SDS011;31399;51.176;7.776;2023-07-31T13:40:19;2.40;;;1.20;;
45686;SDS011;31399;51.176;7.776;2023-07-31T13:42:46;1.30;;;1.15;;
45686;SDS011;31399;51.176;7.776;2023-07-31T13:45:14;1.70;;;1.10;;
45686;SDS011;31399;51.176;7.776;2023-07-31T13:47:40;1.67;;;1.00;;
45686;SDS011;31399;51.176;7.776;2023-07-31T13:50:07;3.60;;;0.80;;
45686;SDS011;31399;51.176;7.776;2023-07-31T13:52:34;1.00;;;0.90;;
45686;SDS011;31399;51.176;7.776;2023-07-31T13:55:01;0.90;;;0.80;;
45686;SDS011;31399;51.176;7.776;2023-07-31T13:57:27;1.55;;;0.93;;
45686;SDS011;31399;51.176;7.776;2023-07-31T13:59:54;1.90;;;0.85;;
45686;SDS011;31399;51.176;7.776;2023-07-31T14:02:21;1.05;;;0.90;;
45686;SDS011;31399;51.176;7.776;2023-07-31T14:04:47;1.77;;;1.27;;
45686;SDS011;31399;51.176;7.776;2023-07-31T14:07:14;1.88;;;0.98;;
45686;SDS011;31399;51.176;7.776;2023-07-31T14:09:41;1.67;;;1.55;;
45686;SDS011;31399;51.176;7.776;2023-07-31T14:12:07;3.00;;;2.28;;
45686;SDS011;31399;51.176;7.776;2023-07-31T14:14:34;2.78;;;2.47;;
45686;SDS011;31399;51.176;7.776;2023-07-31T14:17:01;3.20;;;2.65;;
45686;SDS011;31399;51.176;7.776;2023-07-31T14:19:28;3.03;;;2.72;;
45686;SDS011;31399;51.176;7.776;2023-07-31T14:21:55;3.10;;;2.65;;
45686;SDS011;31399;51.176;7.776;2023-07-31T14:24:36;3.05;;;2.70;;
45686;SDS011;31399;51.176;7.776;2023-07-31T14:27:03;3.60;;;2.20;;
45686;SDS011;31399;51.176;7.776;2023-07-31T14:29:29;8.90;;;3.17;;
45686;SDS011;31399;51.176;7.776;2023-07-31T14:31:56;4.85;;;2.45;;
45686;SDS011;31399;51.176;7.776;2023-07-31T14:34:23;3.90;;;2.40;;
45686;SDS011;31399;51.176;7.776;2023-07-31T14:36:49;7.68;;;2.47;;
45686;SDS011;31399;51.176;7.776;2023-07-31T14:39:16;6.63;;;2.00;;
45686;SDS011;31399;51.176;7.776;2023-07-31T14:41:43;4.10;;;1.70;;
45686;SDS011;31399;51.176;7.776;2023-07-31T14:44:09;6.70;;;2.20;;
45686;SDS011;31399;51.176;7.776;2023-07-31T14:46:36;4.63;;;2.03;;
45686;SDS011;31399;51.176;7.776;2023-07-31T14:49:03;4.68;;;2.53;;
45686;SDS011;31399;51.176;7.776;2023-07-31T14:51:30;3.28;;;1.80;;
45686;SDS011;31399;51.176;7.776;2023-07-31T14:53:56;4.18;;;1.90;;
45686;SDS011;31399;51.176;7.776;2023-07-31T14:56:23;3.63;;;2.20;;